Time;durP1;ratioP1;P1;durP2;ratioP2;P2;SDS_P1;SDS_P2;PMS_P1;PMS_P2;Temp;Humidity;BMP_temperature;BMP_pressure;BME280_temperature;BME280_humidity;BME280_pressure;Samples;Min_cycle;Max_cycle;Signal;HPM_P1;HPM_P2
2021/07/19 00:02:00;;;;;;;3.08;1.60;;;24.60;60.50;;;;;;4881560;29;20029;-65
2021/07/19 00:04:26;;;;;;;2.85;1.30;;;24.60;60.40;;;;;;4881970;29;20041;-64
2021/07/19 00:06:52;;;;;;;2.22;1.35;;;24.60;60.60;;;;;;4881586;29;20128;-64
2021/07/19 00:09:18;;;;;;;4.85;1.55;;;24.50;60.70;;;;;;4881615;29;20093;-64
2021/07/19 00:11:43;;;;;;;2.80;1.50;;;24.50;60.70;;;;;;4881795;29;20025;-64
2021/07/19 00:14:10;;;;;;;1.88;1.30;;;24.50;60.70;;;;;;4881674;29;20037;-64
2021/07/19 00:16:36;;;;;;;2.45;1.42;;;24.50;60.60;;;;;;4881618;29;20108;-64
2021/07/19 00:19:03;;;;;;;2.10;1.20;;;24.50;60.60;;;;;;4881540;29;20053;-64
2021/07/19 00:21:29;;;;;;;3.38;1.52;;;24.50;60.70;;;;;;4881709;29;20025;-64
2021/07/19 00:23:54;;;;;;;3.47;1.60;;;24.50;60.60;;;;;;4881273;29;20032;-64
2021/07/19 00:26:21;;;;;;;2.95;1.45;;;24.50;60.70;;;;;;4881401;29;20040;-65
2021/07/19 00:28:47;;;;;;;2.72;1.38;;;24.50;60.60;;;;;;4881255;29;20037;-64
2021/07/19 00:31:13;;;;;;;2.63;1.30;;;24.50;60.70;;;;;;4881618;29;20127;-64
2021/07/19 00:33:39;;;;;;;2.75;1.58;;;24.50;60.70;;;;;;4881542;29;20229;-64
2021/07/19 00:36:05;;;;;;;2.40;1.33;;;24.40;60.80;;;;;;4881157;29;20036;-64
2021/07/19 00:38:31;;;;;;;4.30;1.63;;;24.40;60.80;;;;;;4881252;29;20051;-64
2021/07/19 00:40:56;;;;;;;2.40;1.40;;;24.40;60.80;;;;;;4879804;29;20092;-65
2021/07/19 00:43:22;;;;;;;2.72;1.40;;;24.40;60.70;;;;;;4881000;29;20492;-64
2021/07/19 00:45:47;;;;;;;2.63;1.45;;;24.40;60.80;;;;;;4881244;29;20432;-64
2021/07/19 00:48:14;;;;;;;2.53;1.40;;;24.40;60.70;;;;;;4880922;29;20048;-64
2021/07/19 00:50:40;;;;;;;3.00;1.60;;;24.40;60.80;;;;;;4880847;29;20367;-64
2021/07/19 00:53:09;;;;;;;2.72;1.50;;;24.40;60.80;;;;;;4880969;29;20037;-64
2021/07/19 00:55:36;;;;;;;3.35;1.48;;;24.40;60.80;;;;;;4880807;29;20037;-64
2021/07/19 00:58:04;;;;;;;2.50;1.42;;;24.40;60.80;;;;;;4880909;29;20081;-64
2021/07/19 01:00:31;;;;;;;3.38;1.60;;;24.30;60.80;;;;;;4880772;29;20039;-63
2021/07/19 01:02:57;;;;;;;2.80;1.40;;;24.30;60.70;;;;;;4883654;29;20045;-64
2021/07/19 01:05:25;;;;;;;2.38;1.35;;;24.30;60.80;;;;;;4882740;29;20106;-64
2021/07/19 01:07:53;;;;;;;4.43;1.50;;;24.30;60.90;;;;;;4880773;29;20053;-64
2021/07/19 01:10:19;;;;;;;2.65;1.40;;;24.30;60.90;;;;;;4880839;29;20025;-64
2021/07/19 01:12:46;;;;;;;3.17;1.48;;;24.30;60.90;;;;;;4879506;29;20059;-64
2021/07/19 01:15:12;;;;;;;2.95;1.40;;;24.20;60.80;;;;;;4880471;29;20485;-63
2021/07/19 01:17:38;;;;;;;3.25;1.70;;;24.30;60.80;;;;;;4880671;29;20025;-64
2021/07/19 01:20:05;;;;;;;5.75;1.80;;;24.20;60.80;;;;;;4878983;29;20029;-64
2021/07/19 01:22:41;;;;;;;2.97;1.60;;;24.20;60.90;;;;;;4880353;29;20040;-64
2021/07/19 01:25:42;;;;;;;2.45;1.30;;;24.20;60.90;;;;;;4880486;29;20017;-64
2021/07/19 01:28:08;;;;;;;3.65;1.85;;;24.30;60.80;;;;;;4880409;29;20037;-63
2021/07/19 01:30:38;;;;;;;3.50;1.42;;;24.20;60.80;;;;;;4880304;29;20028;-64
2021/07/19 01:33:05;;;;;;;3.58;1.60;;;24.20;60.80;;;;;;4880316;29;20076;-63
2021/07/19 01:35:35;;;;;;;2.92;1.20;;;24.20;60.90;;;;;;4878370;29;20392;-63
2021/07/19 01:38:02;;;;;;;2.83;1.40;;;24.20;60.90;;;;;;4880074;29;20438;-63
2021/07/19 01:40:28;;;;;;;3.42;1.50;;;24.20;60.80;;;;;;4879999;29;20036;-63
2021/07/19 01:42:56;;;;;;;3.03;1.42;;;24.20;60.80;;;;;;4880150;29;20061;-63
2021/07/19 01:45:21;;;;;;;3.10;1.55;;;24.20;60.80;;;;;;4880073;29;20029;-64
2021/07/19 01:47:47;;;;;;;2.72;1.50;;;24.20;60.80;;;;;;4879758;29;20037;-64
2021/07/19 01:50:13;;;;;;;3.65;1.58;;;24.10;60.80;;;;;;4879890;29;20056;-64
2021/07/19 01:52:39;;;;;;;2.35;1.38;;;24.10;60.80;;;;;;4879848;29;20079;-64
2021/07/19 01:55:06;;;;;;;4.25;1.60;;;24.10;60.80;;;;;;4879921;29;20033;-64
2021/07/19 01:57:32;;;;;;;2.38;1.50;;;24.10;60.80;;;;;;4889759;29;20025;-64
2021/07/19 01:59:59;;;;;;;5.03;1.73;;;24.10;60.80;;;;;;4884996;29;20115;-64
2021/07/19 02:02:25;;;;;;;3.28;1.60;;;24.10;60.90;;;;;;4880158;29;20037;-64
2021/07/19 02:04:51;;;;;;;4.40;1.83;;;24.10;60.80;;;;;;4887886;29;20128;-64
2021/07/19 02:07:18;;;;;;;3.92;1.70;;;24.00;60.90;;;;;;4888610;29;20086;-64
2021/07/19 02:09:46;;;;;;;3.63;1.70;;;24.00;60.90;;;;;;4886995;29;20107;-65
2021/07/19 02:12:12;;;;;;;3.28;1.63;;;24.00;60.80;;;;;;4884284;29;20481;-64
2021/07/19 02:14:42;;;;;;;3.88;1.88;;;24.00;60.80;;;;;;4881357;29;20040;-64
2021/07/19 02:17:09;;;;;;;2.88;1.58;;;24.00;60.90;;;;;;4884869;29;20037;-64
2021/07/19 02:19:37;;;;;;;3.97;1.88;;;24.00;60.90;;;;;;4890346;29;20097;-64
2021/07/19 02:22:03;;;;;;;3.83;1.70;;;24.00;61.00;;;;;;4884728;29;20032;-64
2021/07/19 02:24:30;;;;;;;3.45;1.60;;;24.00;61.00;;;;;;4882396;29;20021;-63
2021/07/19 02:26:56;;;;;;;5.05;1.83;;;23.90;61.00;;;;;;4880796;29;20029;-64
2021/07/19 02:29:23;;;;;;;2.95;1.60;;;23.90;61.00;;;;;;4889631;29;20040;-64
2021/07/19 02:31:49;;;;;;;2.47;1.30;;;24.00;60.90;;;;;;4888642;29;20077;-64
2021/07/19 02:34:19;;;;;;;4.35;1.60;;;23.90;60.90;;;;;;4887773;29;20029;-64
2021/07/19 02:36:45;;;;;;;4.72;1.85;;;23.90;60.90;;;;;;4889264;29;20085;-64
2021/07/19 02:39:12;;;;;;;3.45;1.48;;;24.00;60.90;;;;;;4888872;29;20044;-64
2021/07/19 02:41:38;;;;;;;2.70;1.33;;;23.90;61.00;;;;;;4890052;29;20378;-64
2021/07/19 02:44:05;;;;;;;2.80;1.42;;;23.90;61.00;;;;;;4889762;29;20025;-63
2021/07/19 02:46:32;;;;;;;3.40;1.60;;;23.80;61.10;;;;;;4891344;29;20166;-64
2021/07/19 02:48:59;;;;;;;4.10;1.73;;;23.90;61.00;;;;;;4894992;29;20041;-64
2021/07/19 02:51:27;;;;;;;4.25;1.65;;;23.80;61.10;;;;;;4894671;29;20053;-64
2021/07/19 02:53:55;;;;;;;3.28;1.83;;;23.80;61.10;;;;;;4895768;29;20036;-64
2021/07/19 02:56:22;;;;;;;3.08;1.70;;;23.80;61.10;;;;;;4894989;29;20718;-64
2021/07/19 02:58:49;;;;;;;3.60;1.77;;;23.80;61.10;;;;;;4895314;29;20057;-64
2021/07/19 03:01:18;;;;;;;2.47;1.38;;;23.80;61.20;;;;;;4894034;29;20028;-64
2021/07/19 03:03:45;;;;;;;3.47;1.80;;;23.70;61.20;;;;;;4893540;29;20052;-64
2021/07/19 03:06:16;;;;;;;3.60;2.05;;;23.70;61.20;;;;;;4894379;29;20021;-64
2021/07/19 03:08:43;;;;;;;2.90;1.63;;;23.70;61.20;;;;;;4895388;29;20044;-63
2021/07/19 03:11:15;;;;;;;3.55;1.70;;;23.70;61.30;;;;;;4889135;29;20125;-64
2021/07/19 03:13:43;;;;;;;3.63;1.95;;;23.70;61.20;;;;;;4883096;29;20029;-64
2021/07/19 03:16:11;;;;;;;4.70;1.95;;;23.70;61.20;;;;;;4882833;29;20025;-64
2021/07/19 03:18:39;;;;;;;4.43;1.80;;;23.70;61.30;;;;;;4882818;29;20037;-64
2021/07/19 03:21:06;;;;;;;3.88;1.67;;;23.70;61.20;;;;;;4884092;29;20029;-63
2021/07/19 03:23:35;;;;;;;4.05;1.88;;;23.60;61.30;;;;;;4881697;29;20440;-64
2021/07/19 03:26:02;;;;;;;3.63;1.70;;;23.70;61.30;;;;;;4882732;29;20040;-64
2021/07/19 03:28:29;;;;;;;4.10;1.77;;;23.60;61.20;;;;;;4882402;29;20037;-63
2021/07/19 03:30:56;;;;;;;3.33;1.83;;;23.60;61.30;;;;;;4882541;29;20179;-63
2021/07/19 03:33:22;;;;;;;2.78;1.88;;;23.70;61.30;;;;;;4882269;29;20069;-64
2021/07/19 03:35:49;;;;;;;3.20;1.77;;;23.60;61.20;;;;;;4882646;29;20032;-64
2021/07/19 03:38:18;;;;;;;5.30;2.00;;;23.60;61.20;;;;;;4882298;29;20021;-64
2021/07/19 03:40:44;;;;;;;3.80;1.77;;;23.60;61.30;;;;;;4882394;29;20492;-64
2021/07/19 03:43:10;;;;;;;3.50;1.90;;;23.60;61.30;;;;;;4882140;29;20021;-63
2021/07/19 03:45:37;;;;;;;5.57;1.80;;;23.60;61.30;;;;;;4882032;29;20033;-64
2021/07/19 03:48:03;;;;;;;3.63;1.85;;;23.60;61.30;;;;;;4882389;29;20041;-63
2021/07/19 03:50:31;;;;;;;3.83;2.15;;;23.60;61.30;;;;;;4882305;29;20108;-63
2021/07/19 03:52:57;;;;;;;3.55;1.77;;;23.50;61.30;;;;;;4882101;29;20029;-63
2021/07/19 03:55:23;;;;;;;4.50;2.30;;;23.50;61.40;;;;;;4881782;29;20528;-63
2021/07/19 03:57:50;;;;;;;4.05;1.90;;;23.50;61.30;;;;;;4881495;29;20032;-63
2021/07/19 04:00:17;;;;;;;3.08;1.70;;;23.50;61.30;;;;;;4881896;29;20028;-63
2021/07/19 04:02:48;;;;;;;3.95;1.80;;;23.50;61.30;;;;;;4881556;29;20068;-63
2021/07/19 04:05:14;;;;;;;4.65;2.00;;;23.50;61.30;;;;;;4881755;29;20029;-64
2021/07/19 04:07:43;;;;;;;4.32;2.13;;;23.50;61.30;;;;;;4881860;29;20069;-63
2021/07/19 04:10:11;;;;;;;3.40;1.70;;;23.50;61.30;;;;;;4880695;29;20065;-63
2021/07/19 04:12:44;;;;;;;3.97;2.00;;;23.50;61.30;;;;;;4884007;29;20033;-63
2021/07/19 04:15:10;;;;;;;2.67;1.60;;;23.50;61.30;;;;;;4887551;29;20025;-64
2021/07/19 04:17:36;;;;;;;4.03;2.00;;;23.50;61.30;;;;;;4883032;29;20036;-63
2021/07/19 04:20:05;;;;;;;5.35;2.20;;;23.50;61.30;;;;;;4881739;29;20037;-64
2021/07/19 04:22:32;;;;;;;4.60;2.17;;;23.50;61.30;;;;;;4881427;29;20029;-63
2021/07/19 04:24:58;;;;;;;3.75;1.83;;;23.50;61.30;;;;;;4881565;29;20084;-64
2021/07/19 04:27:24;;;;;;;4.30;1.80;;;23.50;61.30;;;;;;4881548;29;20033;-63
2021/07/19 04:29:51;;;;;;;3.58;2.00;;;23.50;61.30;;;;;;4881376;29;20045;-63
2021/07/19 04:32:21;;;;;;;3.17;1.83;;;23.50;61.20;;;;;;4881339;29;20133;-63
2021/07/19 04:34:47;;;;;;;3.10;1.65;;;23.50;61.30;;;;;;4881375;29;20029;-63
2021/07/19 04:37:13;;;;;;;3.88;1.85;;;23.50;61.20;;;;;;4881242;29;20081;-64
2021/07/19 04:39:40;;;;;;;3.40;1.98;;;23.50;61.20;;;;;;4881115;29;20025;-63
2021/07/19 04:42:06;;;;;;;3.10;1.73;;;23.40;61.20;;;;;;4881022;29;20416;-63
2021/07/19 04:44:33;;;;;;;3.97;1.95;;;23.40;61.30;;;;;;4881390;29;20119;-63
2021/07/19 04:46:59;;;;;;;4.70;2.08;;;23.50;61.20;;;;;;4880929;29;20179;-63
2021/07/19 04:49:26;;;;;;;3.88;1.83;;;23.40;61.30;;;;;;4881203;29;20029;-63
2021/07/19 04:51:53;;;;;;;3.83;1.95;;;23.40;61.20;;;;;;4881160;29;20033;-63
2021/07/19 04:54:24;;;;;;;4.25;2.30;;;23.40;61.10;;;;;;4881107;29;20120;-63
2021/07/19 04:56:53;;;;;;;3.45;2.10;;;23.50;61.10;;;;;;4881324;29;20077;-63
2021/07/19 04:59:20;;;;;;;3.85;1.85;;;23.50;61.10;;;;;;4880729;29;20532;-63
2021/07/19 05:01:49;;;;;;;3.78;2.30;;;23.50;61.00;;;;;;4880861;29;20085;-63
2021/07/19 05:04:16;;;;;;;3.63;1.75;;;23.50;61.00;;;;;;4879727;29;20080;-63
2021/07/19 05:06:46;;;;;;;4.15;2.35;;;23.40;61.10;;;;;;4880703;29;20548;-63
2021/07/19 05:09:13;;;;;;;3.83;2.00;;;23.50;61.00;;;;;;4880609;29;20044;-63
2021/07/19 05:11:40;;;;;;;5.32;2.33;;;23.50;61.00;;;;;;4880088;29;20025;-63
2021/07/19 05:14:07;;;;;;;4.53;2.28;;;23.50;61.00;;;;;;4880754;29;20160;-63
2021/07/19 05:16:34;;;;;;;5.47;2.45;;;23.50;60.90;;;;;;4880494;29;20040;-63
2021/07/19 05:19:02;;;;;;;4.57;2.20;;;23.50;60.90;;;;;;4880504;29;20422;-63
2021/07/19 05:21:27;;;;;;;4.95;2.50;;;23.50;60.90;;;;;;4880336;29;20108;-63
2021/07/19 05:23:53;;;;;;;4.47;2.17;;;23.50;60.90;;;;;;4880691;29;20537;-63
2021/07/19 05:26:18;;;;;;;4.60;1.75;;;23.50;60.80;;;;;;4880269;29;20477;-63
2021/07/19 05:28:44;;;;;;;5.47;2.40;;;23.50;60.80;;;;;;4880348;29;20037;-63
2021/07/19 05:31:09;;;;;;;4.00;2.40;;;23.50;60.80;;;;;;4880281;29;20073;-63
2021/07/19 05:33:35;;;;;;;4.53;2.13;;;23.50;60.70;;;;;;4880236;29;20025;-63
2021/07/19 05:36:01;;;;;;;5.10;2.20;;;23.50;60.70;;;;;;4879109;29;20021;-63
2021/07/19 05:38:28;;;;;;;3.67;2.03;;;23.50;60.70;;;;;;4880330;29;20029;-63
2021/07/19 05:40:54;;;;;;;5.18;2.40;;;23.50;60.70;;;;;;4880340;29;20037;-63
2021/07/19 05:43:20;;;;;;;5.22;2.30;;;23.50;60.70;;;;;;4880356;29;20451;-63
2021/07/19 05:45:46;;;;;;;4.28;2.05;;;23.50;60.80;;;;;;4881521;29;20031;-63
2021/07/19 05:48:11;;;;;;;4.13;2.40;;;23.50;60.70;;;;;;4881391;29;20132;-63
2021/07/19 05:50:37;;;;;;;5.28;2.17;;;23.50;60.70;;;;;;4878434;29;20415;-63
2021/07/19 05:53:04;;;;;;;5.90;2.20;;;23.50;60.70;;;;;;4878689;29;20509;-64
2021/07/19 05:55:30;;;;;;;3.95;2.10;;;23.50;60.60;;;;;;4879965;29;20516;-64
2021/07/19 05:58:01;;;;;;;4.18;2.17;;;23.50;60.60;;;;;;4879670;29;20056;-64
2021/07/19 06:00:27;;;;;;;3.63;2.08;;;23.50;60.70;;;;;;4879889;29;20025;-63
2021/07/19 06:02:53;;;;;;;5.47;2.55;;;23.50;60.70;;;;;;4879522;29;20052;-64
2021/07/19 06:05:18;;;;;;;4.60;2.30;;;23.50;60.70;;;;;;4883982;29;20037;-63
2021/07/19 06:07:45;;;;;;;6.25;2.85;;;23.50;60.60;;;;;;4881320;29;20033;-64
2021/07/19 06:10:12;;;;;;;5.30;2.28;;;23.50;60.70;;;;;;4880080;29;20037;-63
2021/07/19 06:12:39;;;;;;;4.93;2.50;;;23.50;60.70;;;;;;4881040;29;20029;-64
2021/07/19 06:15:07;;;;;;;6.00;2.70;;;23.50;60.60;;;;;;4887207;29;20393;-64
2021/07/19 06:17:35;;;;;;;4.35;2.35;;;23.40;60.60;;;;;;4886713;29;20061;-64
2021/07/19 06:20:00;;;;;;;4.57;2.35;;;23.50;60.60;;;;;;4884391;29;20418;-64
2021/07/19 06:22:26;;;;;;;5.63;2.42;;;23.40;60.60;;;;;;4879474;29;20021;-64
2021/07/19 06:24:54;;;;;;;5.32;2.60;;;23.40;60.70;;;;;;4883266;29;20041;-64
2021/07/19 06:27:19;;;;;;;5.63;2.55;;;23.40;60.60;;;;;;4882902;29;20045;-63
2021/07/19 06:29:45;;;;;;;6.75;2.63;;;23.50;60.60;;;;;;4879661;29;20430;-63
2021/07/19 06:32:11;;;;;;;4.38;2.35;;;23.50;60.60;;;;;;4880124;29;20450;-64
2021/07/19 06:34:36;;;;;;;5.18;2.67;;;23.40;60.60;;;;;;4879893;29;20036;-64
2021/07/19 06:37:03;;;;;;;4.93;2.30;;;23.50;60.60;;;;;;4879980;29;20057;-63
2021/07/19 06:39:29;;;;;;;5.22;2.58;;;23.40;60.50;;;;;;4879640;29;20192;-63
2021/07/19 06:41:55;;;;;;;5.50;2.70;;;23.50;60.50;;;;;;4878998;29;20493;-63
2021/07/19 06:44:20;;;;;;;4.65;2.25;;;23.50;60.50;;;;;;4879170;29;20089;-64
2021/07/19 06:46:46;;;;;;;6.60;2.72;;;23.50;60.50;;;;;;4879285;29;20036;-64
2021/07/19 06:49:11;;;;;;;4.55;2.42;;;23.50;60.50;;;;;;4878925;29;20045;-64
2021/07/19 06:51:37;;;;;;;4.65;2.47;;;23.50;60.50;;;;;;4879302;29;20485;-63
2021/07/19 06:54:03;;;;;;;4.57;2.33;;;23.50;60.50;;;;;;4879091;29;20033;-63
2021/07/19 06:56:31;;;;;;;5.82;2.67;;;23.50;60.50;;;;;;4881659;29;20112;-64
2021/07/19 06:58:57;;;;;;;4.90;2.60;;;23.50;60.50;;;;;;4880741;29;20036;-63
2021/07/19 07:01:22;;;;;;;4.65;2.33;;;23.50;60.40;;;;;;4878824;29;20037;-63
2021/07/19 07:03:48;;;;;;;7.30;2.85;;;23.50;60.40;;;;;;4879058;29;20489;-64
2021/07/19 07:06:13;;;;;;;6.00;2.42;;;23.50;60.40;;;;;;4879185;29;20033;-64
2021/07/19 07:08:39;;;;;;;5.22;2.42;;;23.50;60.40;;;;;;4887385;29;20508;-64
2021/07/19 07:11:04;;;;;;;8.25;3.97;;;23.50;60.40;;;;;;4886435;29;20033;-63
2021/07/19 07:13:30;;;;;;;6.90;3.58;;;23.30;60.00;;;;;;4881332;29;20374;-62
2021/07/19 07:15:55;;;;;;;8.85;3.97;;;23.00;60.60;;;;;;4882110;29;20029;-64
2021/07/19 07:18:21;;;;;;;9.02;4.32;;;22.80;60.80;;;;;;4878887;29;20132;-63
2021/07/19 07:20:46;;;;;;;7.95;3.90;;;22.80;61.10;;;;;;4872934;29;20384;-62
2021/07/19 07:23:12;;;;;;;8.48;4.57;;;22.70;61.10;;;;;;4869553;29;20083;-64
2021/07/19 07:25:37;;;;;;;9.35;4.80;;;22.70;60.70;;;;;;4878800;29;20057;-64
2021/07/19 07:28:03;;;;;;;8.57;4.63;;;22.70;60.80;;;;;;4878615;29;20029;-65
2021/07/19 07:30:28;;;;;;;11.32;5.13;;;22.70;60.80;;;;;;4879838;29;20025;-65
2021/07/19 07:32:54;;;;;;;9.32;5.20;;;22.70;60.70;;;;;;4878423;29;20077;-65
2021/07/19 07:35:20;;;;;;;10.18;5.25;;;22.60;60.70;;;;;;4881835;29;20028;-66
2021/07/19 07:37:46;;;;;;;11.57;5.60;;;22.70;60.50;;;;;;4881230;29;20040;-63
2021/07/19 07:40:15;;;;;;;13.10;5.47;;;22.70;60.20;;;;;;4881681;29;20033;-66
2021/07/19 07:42:41;;;;;;;9.38;5.15;;;22.60;60.00;;;;;;4880527;29;20025;-64
2021/07/19 07:45:08;;;;;;;12.18;5.25;;;22.50;60.20;;;;;;4880970;29;20496;-64
2021/07/19 07:47:33;;;;;;;9.43;5.22;;;22.60;60.00;;;;;;4880456;29;20033;-66
2021/07/19 07:49:59;;;;;;;11.15;4.72;;;22.80;59.40;;;;;;4881156;29;20077;-62
2021/07/19 07:52:24;;;;;;;12.88;5.40;;;22.90;58.90;;;;;;4881113;29;20029;-61
2021/07/19 07:54:50;;;;;;;11.45;5.53;;;22.90;58.20;;;;;;4883551;29;20029;-64
2021/07/19 07:57:16;;;;;;;11.90;5.80;;;23.00;58.00;;;;;;4881450;29;20032;-63
2021/07/19 07:59:41;;;;;;;13.98;5.55;;;23.00;58.10;;;;;;4880502;29;20041;-63
2021/07/19 08:02:07;;;;;;;11.57;5.60;;;23.10;58.10;;;;;;4881072;29;20041;-63
2021/07/19 08:04:34;;;;;;;13.20;5.65;;;23.10;58.10;;;;;;4887417;29;20036;-63
2021/07/19 08:07:00;;;;;;;12.15;5.35;;;23.10;57.50;;;;;;4884766;29;20085;-64
2021/07/19 08:09:27;;;;;;;11.38;5.35;;;23.00;56.90;;;;;;4882258;29;20041;-62
2021/07/19 08:11:53;;;;;;;10.57;5.75;;;23.00;57.00;;;;;;4881363;29;20481;-60
2021/07/19 08:14:19;;;;;;;12.82;5.80;;;23.00;57.20;;;;;;4889992;29;20127;-61
2021/07/19 08:16:44;;;;;;;10.55;5.47;;;23.00;57.30;;;;;;4900088;29;20434;-61
2021/07/19 08:19:11;;;;;;;9.65;5.55;;;23.00;57.50;;;;;;4896639;29;20033;-61
2021/07/19 08:21:40;;;;;;;9.38;5.18;;;23.00;57.60;;;;;;4886964;29;20493;-61
2021/07/19 08:24:06;;;;;;;14.48;7.65;;;23.10;58.00;;;;;;4885056;29;20056;-59
2021/07/19 08:26:32;;;;;;;12.55;7.40;;;23.10;57.40;;;;;;4882075;29;20032;-61
2021/07/19 08:28:58;;;;;;;12.98;6.90;;;23.10;57.50;;;;;;4879365;29;20036;-59
2021/07/19 08:31:26;;;;;;;12.18;6.13;;;23.10;57.50;;;;;;4880307;29;20036;-60
2021/07/19 08:33:52;;;;;;;14.30;6.18;;;23.10;57.30;;;;;;4880965;29;20044;-63
2021/07/19 08:36:18;;;;;;;12.07;6.57;;;23.10;56.60;;;;;;4880577;29;20081;-62
2021/07/19 08:38:44;;;;;;;16.55;7.43;;;23.00;56.90;;;;;;4880141;29;20033;-61
2021/07/19 08:41:12;;;;;;;10.85;5.38;;;23.00;56.70;;;;;;4880198;29;20194;-61
2021/07/19 08:43:38;;;;;;;10.48;6.18;;;23.20;57.40;;;;;;4879754;29;20124;-63
2021/07/19 08:46:04;;;;;;;11.82;6.78;;;23.10;56.00;;;;;;4880357;29;20029;-61
2021/07/19 08:48:31;;;;;;;11.20;5.88;;;23.10;56.30;;;;;;4880123;29;20075;-61
2021/07/19 08:50:58;;;;;;;10.90;5.63;;;23.10;56.50;;;;;;4879555;29;20056;-61
2021/07/19 08:53:25;;;;;;;11.43;5.93;;;23.10;55.80;;;;;;4879986;29;20033;-63
2021/07/19 08:55:53;;;;;;;10.30;5.68;;;23.10;55.80;;;;;;4880172;29;20138;-60
2021/07/19 08:58:18;;;;;;;11.45;5.90;;;23.10;55.40;;;;;;4862248;29;20512;-60
2021/07/19 09:00:45;;;;;;;11.15;5.88;;;23.20;55.70;;;;;;4878591;29;20116;-60
2021/07/19 09:03:10;;;;;;;10.73;5.85;;;23.10;55.70;;;;;;4879776;29;20416;-61
2021/07/19 09:05:37;;;;;;;11.40;6.15;;;23.10;55.30;;;;;;4879530;29;20033;-61
2021/07/19 09:08:05;;;;;;;12.93;6.32;;;23.10;54.10;;;;;;4878493;29;20049;-61
2021/07/19 09:10:31;;;;;;;10.48;6.10;;;23.10;54.40;;;;;;4879178;29;20029;-60
2021/07/19 09:13:00;;;;;;;12.98;6.25;;;23.20;54.50;;;;;;4877650;29;20095;-60
2021/07/19 09:15:33;;;;;;;10.05;5.53;;;23.10;54.20;;;;;;4878527;29;20033;-61
2021/07/19 09:18:00;;;;;;;12.25;6.47;;;23.10;54.80;;;;;;4879051;29;20504;-59
2021/07/19 09:20:33;;;;;;;9.77;6.15;;;23.10;54.70;;;;;;4879412;29;20033;-61
2021/07/19 09:22:58;;;;;;;11.15;6.13;;;23.00;54.00;;;;;;4879007;29;20033;-61
2021/07/19 09:25:24;;;;;;;12.80;6.22;;;23.10;54.10;;;;;;4878849;29;20032;-62
2021/07/19 09:28:04;;;;;;;9.38;5.35;;;23.20;54.20;;;;;;4878313;29;20049;-61
2021/07/19 09:30:49;;;;;;;11.82;6.80;;;23.20;55.60;;;;;;4879368;29;20035;-61
2021/07/19 09:33:18;;;;;;;8.07;4.90;;;23.20;55.00;;;;;;4878782;29;20082;-62
2021/07/19 09:35:47;;;;;;;9.70;5.85;;;23.30;54.90;;;;;;4877527;29;20041;-60
2021/07/19 09:38:15;;;;;;;11.23;6.32;;;23.20;55.10;;;;;;4867317;29;20033;-60
2021/07/19 09:40:43;;;;;;;11.35;6.82;;;23.20;54.40;;;;;;4878509;29;20037;-60
2021/07/19 09:43:31;;;;;;;13.00;6.57;;;23.20;54.30;;;;;;4878943;29;20088;-60
2021/07/19 09:46:02;;;;;;;9.52;5.70;;;23.30;55.00;;;;;;4878859;29;20029;-60
2021/07/19 09:48:28;;;;;;;13.45;6.90;;;23.30;55.80;;;;;;4878503;29;20084;-63
2021/07/19 09:50:54;;;;;;;10.88;6.90;;;23.30;55.30;;;;;;4876702;29;20077;-62
2021/07/19 09:53:32;;;;;;;12.70;6.55;;;23.30;54.60;;;;;;4878473;29;20160;-62
2021/07/19 09:56:15;;;;;;;13.57;7.07;;;23.20;54.50;;;;;;4878179;29;20108;-62
2021/07/19 09:58:42;;;;;;;11.20;6.15;;;23.30;55.00;;;;;;4878601;29;20029;-61
2021/07/19 10:01:09;;;;;;;10.55;5.78;;;23.30;55.30;;;;;;4878526;29;20025;-62
2021/07/19 10:03:35;;;;;;;10.40;6.03;;;23.30;55.00;;;;;;4877753;29;20509;-61
2021/07/19 10:06:07;;;;;;;12.65;6.55;;;23.30;54.80;;;;;;4878077;29;20077;-61
2021/07/19 10:08:33;;;;;;;11.23;6.18;;;23.40;55.20;;;;;;4878475;29;20416;-62
2021/07/19 10:10:59;;;;;;;10.07;5.68;;;23.40;55.70;;;;;;4878660;29;20105;-64
2021/07/19 10:13:33;;;;;;;11.18;6.55;;;23.30;55.90;;;;;;4877950;29;20025;-63
2021/07/19 10:15:59;;;;;;;11.35;7.13;;;23.40;56.00;;;;;;4879118;29;20100;-61
2021/07/19 10:18:29;;;;;;;9.98;6.38;;;23.40;54.60;;;;;;4878395;29;20029;-61
2021/07/19 10:20:55;;;;;;;9.52;5.70;;;23.40;55.00;;;;;;4878034;29;20489;-62
2021/07/19 10:23:21;;;;;;;10.95;5.68;;;23.40;55.00;;;;;;4878202;29;20039;-62
2021/07/19 10:25:47;;;;;;;10.48;6.15;;;23.40;54.90;;;;;;4878060;29;20446;-62
2021/07/19 10:28:14;;;;;;;12.02;6.50;;;23.40;55.30;;;;;;4878628;29;20501;-62
2021/07/19 10:30:41;;;;;;;10.88;6.93;;;23.40;54.80;;;;;;4878733;29;20040;-62
2021/07/19 10:33:06;;;;;;;11.52;6.40;;;23.30;54.60;;;;;;4878475;29;20045;-63
2021/07/19 10:35:32;;;;;;;13.43;7.10;;;23.40;54.80;;;;;;4877411;29;20033;-63
2021/07/19 10:38:14;;;;;;;12.38;6.82;;;23.30;54.00;;;;;;4878628;29;20029;-63
2021/07/19 10:40:40;;;;;;;11.23;7.47;;;23.30;54.00;;;;;;4860629;29;20382;-64
2021/07/19 10:43:14;;;;;;;13.20;6.78;;;23.30;54.30;;;;;;4871612;29;20036;-63
2021/07/19 10:45:57;;;;;;;11.15;6.72;;;23.40;54.40;;;;;;4877863;29;20025;-63
2021/07/19 10:48:30;;;;;;;13.13;7.45;;;23.40;54.00;;;;;;4878193;29;20132;-62
2021/07/19 10:50:58;;;;;;;10.82;7.05;;;23.40;53.70;;;;;;4878423;29;20556;-65
2021/07/19 10:53:28;;;;;;;13.13;7.60;;;23.40;53.70;;;;;;4878374;29;20037;-65
2021/07/19 10:56:08;;;;;;;12.63;7.40;;;23.30;54.40;;;;;;4877981;29;20085;-61
2021/07/19 10:58:48;;;;;;;16.13;7.50;;;23.40;54.40;;;;;;4878374;29;20121;-62
2021/07/19 11:01:25;;;;;;;12.52;7.05;;;23.40;54.40;;;;;;4877922;29;20444;-61
2021/07/19 11:03:52;;;;;;;14.75;6.97;;;23.40;55.00;;;;;;4878052;29;20075;-62
2021/07/19 11:06:32;;;;;;;12.90;6.65;;;23.40;54.60;;;;;;4877761;29;20365;-61
2021/07/19 11:08:58;;;;;;;16.50;7.55;;;23.40;54.40;;;;;;4879527;29;20442;-63
2021/07/19 11:11:34;;;;;;;12.02;6.93;;;23.40;54.60;;;;;;4881392;29;20029;-64
2021/07/19 11:14:03;;;;;;;11.95;7.45;;;23.40;54.30;;;;;;4882129;29;20056;-64
2021/07/19 11:16:51;;;;;;;13.68;6.68;;;23.50;54.90;;;;;;4881109;29;20113;-62
2021/07/19 11:19:36;;;;;;;12.88;7.32;;;23.50;55.30;;;;;;4872855;29;20055;-63
2021/07/19 11:22:06;;;;;;;13.02;7.22;;;23.50;53.80;;;;;;4881076;29;20025;-62
2021/07/19 11:24:47;;;;;;;11.80;7.05;;;23.50;55.00;;;;;;4882054;29;20040;-63
2021/07/19 11:27:20;;;;;;;13.43;7.78;;;23.50;54.20;;;;;;4875890;29;20077;-65
2021/07/19 11:29:45;;;;;;;13.43;7.10;;;23.40;54.20;;;;;;4880055;29;20447;-63
2021/07/19 11:32:19;;;;;;;12.05;6.85;;;23.40;53.80;;;;;;4878047;29;20056;-63
2021/07/19 11:34:47;;;;;;;13.82;6.90;;;23.40;54.70;;;;;;4874417;29;20037;-63
2021/07/19 11:37:14;;;;;;;12.88;7.35;;;23.40;54.10;;;;;;4876973;29;20490;-65
2021/07/19 11:39:53;;;;;;;12.45;7.60;;;23.40;54.30;;;;;;4879471;29;20466;-62
2021/07/19 11:42:33;;;;;;;12.25;7.15;;;23.40;54.60;;;;;;4872280;29;20048;-64
2021/07/19 11:45:05;;;;;;;12.65;7.03;;;23.50;54.90;;;;;;4875551;29;20033;-62
2021/07/19 11:47:31;;;;;;;11.35;7.20;;;23.50;54.90;;;;;;4863198;29;20152;-62
2021/07/19 11:50:06;;;;;;;13.60;7.55;;;23.50;54.80;;;;;;4863560;29;20451;-62
2021/07/19 11:52:32;;;;;;;13.65;7.22;;;23.50;54.30;;;;;;4863208;29;20041;-61
2021/07/19 11:54:58;;;;;;;13.32;7.32;;;23.50;54.70;;;;;;4879919;29;20029;-61
2021/07/19 11:57:25;;;;;;;12.35;7.72;;;23.50;54.60;;;;;;4880657;29;20059;-61
2021/07/19 11:59:50;;;;;;;18.15;8.27;;;23.50;54.50;;;;;;4880467;29;20036;-60
2021/07/19 12:02:25;;;;;;;11.43;7.38;;;23.50;54.50;;;;;;4880932;29;20068;-60
2021/07/19 12:04:51;;;;;;;12.63;7.40;;;23.60;54.80;;;;;;4879110;29;20045;-60
2021/07/19 12:07:16;;;;;;;11.35;6.05;;;23.60;54.80;;;;;;4880551;29;20025;-60
2021/07/19 12:09:44;;;;;;;12.65;6.90;;;23.60;54.80;;;;;;4862427;29;20037;-60
2021/07/19 12:12:11;;;;;;;10.52;6.80;;;23.70;55.00;;;;;;4861914;29;20041;-60
2021/07/19 12:14:37;;;;;;;12.18;7.57;;;23.70;54.80;;;;;;4863302;29;20029;-60
2021/07/19 12:17:04;;;;;;;14.60;7.47;;;23.70;54.90;;;;;;4874797;29;20044;-60
2021/07/19 12:19:30;;;;;;;16.63;7.57;;;23.70;54.50;;;;;;4877625;29;20033;-60
2021/07/19 12:22:00;;;;;;;11.98;6.78;;;23.70;54.70;;;;;;4880304;29;20078;-60
2021/07/19 12:24:28;;;;;;;11.88;7.30;;;23.80;54.90;;;;;;4869641;29;20394;-61
2021/07/19 12:27:01;;;;;;;11.55;7.47;;;23.80;54.70;;;;;;4862028;29;20481;-60
2021/07/19 12:29:33;;;;;;;11.95;7.13;;;23.80;54.50;;;;;;4869079;29;20402;-60
2021/07/19 12:32:01;;;;;;;13.75;7.78;;;23.80;54.90;;;;;;4879797;29;20085;-62
2021/07/19 12:34:29;;;;;;;12.57;7.40;;;23.80;54.50;;;;;;4866316;29;20072;-63
2021/07/19 12:36:57;;;;;;;12.50;6.90;;;23.80;54.80;;;;;;4861294;29;20033;-62
2021/07/19 12:39:46;;;;;;;11.48;7.57;;;23.80;54.90;;;;;;4862333;29;20089;-62
2021/07/19 12:42:17;;;;;;;14.02;7.13;;;23.80;54.30;;;;;;4862041;29;20052;-59
2021/07/19 12:44:57;;;;;;;12.02;7.40;;;23.80;54.90;;;;;;4861435;29;20091;-58
2021/07/19 12:47:26;;;;;;;12.10;7.68;;;23.80;54.60;;;;;;4861488;29;20038;-59